Key West Nas /Boca Chica Field/ Airport
KNQX : now visible

Airfield :











YOU CAN JOIN US ON...

 
LOGIN :

Register | Disclaimer

   EN    FR    IT 

 









Legend :    VFR   Marginal VFR   IFR   Intensive IFR   Very Intensive IFR
Visi :
Ceiling :
>= 8 km
>= 3000ft
5 to 8 km
1000 to 3000 ft
1500m to 5 km
500 to 1000 ft
800 to 1500m
200 to 500 ft
< 800m
< 200 ft
Symbols :   Thunderstorms  Fog  Heavy snow  Heavy precipitations  Wind > 20 kt






- Airport Elevation : 6 ft


KNQX - Key West Nas /Boca Chica Field/

CURRENT METAR :
  • 171753Z 10017KT 10SM FEW028 BKN300 29/21 A3007 RMK AO2 SLP181 60000 T02940211 10294 20233 58002

EXPIRED METARs :
  • 171653Z 10019KT 10SM FEW028 BKN300 29/22 A3007 RMK AO2 SLP183 T02890217
  • 171553Z 10017KT 10SM SCT030 BKN048 BKN300 28/22 A3008 RMK AO2 SLP184 T02780217

TAF AMD TAF KNQX
Valid from the 17 at 17:00 until the 18 at 15:00 UTC


1717/1815 09018G25KT 9999 VCSH SCT025 BKN300 540005 QNH2998INS
FM180100 08018G25KT 9999 VCSH FEW025 SCT300 540005 QNH2996INS T30/1719Z T25/1810Z AMD 1720 FN20056
KZMA FIR / North America



MET'MAP, your aeronautical weather chart ! - Copyright ORBIFLY December 2007 - Disclaimer

ORBIFLY MET'MAP TEAM :

Programming & Development : Alexandra Zaïnal
Concept & original design : Baudouin d'Aumeries
Assistance for programming : Marc-Olivier Méhu
Technical & hardware support : Manuel Goepfert

Contact : metmap@orbifly.com




SOURCES & CREDITS :

   NOAA       Earth
Advisory